sensor_id;sensor_type;location;lat;lon;timestamp;pressure;altitude;pressure_sealevel;temperature;humidity
26043;BME280;13818;52.156;5.382;2023-10-09T00:01:39;101770.72;;;15.74;100.00
26043;BME280;13818;52.156;5.382;2023-10-09T00:04:08;101769.69;;;15.76;100.00
26043;BME280;13818;52.156;5.382;2023-10-09T00:06:37;101767.88;;;15.77;100.00
26043;BME280;13818;52.156;5.382;2023-10-09T00:09:04;101767.25;;;15.72;100.00
26043;BME280;13818;52.156;5.382;2023-10-09T00:11:42;101765.34;;;15.74;100.00
26043;BME280;13818;52.156;5.382;2023-10-09T00:14:10;101762.81;;;15.88;100.00
26043;BME280;13818;52.156;5.382;2023-10-09T00:16:37;101760.13;;;15.88;100.00
26043;BME280;13818;52.156;5.382;2023-10-09T00:19:09;101763.94;;;15.84;100.00
26043;BME280;13818;52.156;5.382;2023-10-09T00:21:47;101759.28;;;15.88;100.00
26043;BME280;13818;52.156;5.382;2023-10-09T00:24:14;101760.22;;;15.87;100.00
26043;BME280;13818;52.156;5.382;2023-10-09T00:26:47;101763.00;;;15.85;100.00
26043;BME280;13818;52.156;5.382;2023-10-09T00:29:15;101769.09;;;15.89;100.00
26043;BME280;13818;52.156;5.382;2023-10-09T00:31:50;101767.81;;;15.96;100.00
26043;BME280;13818;52.156;5.382;2023-10-09T00:34:22;101772.81;;;15.86;100.00
26043;BME280;13818;52.156;5.382;2023-10-09T00:36:52;101772.38;;;15.76;100.00
26043;BME280;13818;52.156;5.382;2023-10-09T00:39:21;101764.75;;;15.69;100.00
26043;BME280;13818;52.156;5.382;2023-10-09T00:42:07;101760.41;;;15.66;100.00
26043;BME280;13818;52.156;5.382;2023-10-09T00:44:37;101767.44;;;15.69;100.00
26043;BME280;13818;52.156;5.382;2023-10-09T00:47:06;101758.31;;;15.71;100.00
26043;BME280;13818;52.156;5.382;2023-10-09T00:49:47;101769.16;;;15.70;100.00
26043;BME280;13818;52.156;5.382;2023-10-09T00:52:16;101755.66;;;15.71;100.00
26043;BME280;13818;52.156;5.382;2023-10-09T00:54:51;101750.41;;;15.68;100.00
26043;BME280;13818;52.156;5.382;2023-10-09T00:57:19;101742.19;;;15.71;100.00
26043;BME280;13818;52.156;5.382;2023-10-09T00:59:53;101746.25;;;15.62;100.00
26043;BME280;13818;52.156;5.382;2023-10-09T01:02:25;101743.25;;;15.69;100.00
26043;BME280;13818;52.156;5.382;2023-10-09T01:05:01;101740.84;;;15.80;100.00
26043;BME280;13818;52.156;5.382;2023-10-09T01:07:37;101734.53;;;15.81;100.00
26043;BME280;13818;52.156;5.382;2023-10-09T01:10:06;101736.63;;;15.92;100.00
26043;BME280;13818;52.156;5.382;2023-10-09T01:12:53;101728.44;;;15.95;100.00
26043;BME280;13818;52.156;5.382;2023-10-09T01:15:20;101728.44;;;15.95;100.00
26043;BME280;13818;52.156;5.382;2023-10-09T01:18:02;101732.75;;;15.98;100.00
26043;BME280;13818;52.156;5.382;2023-10-09T01:20:29;101725.56;;;15.98;100.00
26043;BME280;13818;52.156;5.382;2023-10-09T01:23:02;101724.78;;;15.96;100.00
26043;BME280;13818;52.156;5.382;2023-10-09T01:25:28;101719.13;;;16.01;100.00
26043;BME280;13818;52.156;5.382;2023-10-09T01:28:07;101714.38;;;16.06;100.00
26043;BME280;13818;52.156;5.382;2023-10-09T01:30:33;101721.50;;;16.07;100.00
26043;BME280;13818;52.156;5.382;2023-10-09T01:32:59;101715.06;;;16.09;100.00
26043;BME280;13818;52.156;5.382;2023-10-09T01:35:37;101713.50;;;16.05;100.00
26043;BME280;13818;52.156;5.382;2023-10-09T01:38:13;101716.00;;;16.08;100.00
26043;BME280;13818;52.156;5.382;2023-10-09T01:40:40;101713.19;;;16.12;100.00
26043;BME280;13818;52.156;5.382;2023-10-09T01:43:08;101713.78;;;16.17;100.00
26043;BME280;13818;52.156;5.382;2023-10-09T01:45:35;101703.78;;;16.35;100.00
26043;BME280;13818;52.156;5.382;2023-10-09T01:48:07;101701.66;;;16.41;100.00
26043;BME280;13818;52.156;5.382;2023-10-09T01:50:34;101702.41;;;16.43;100.00
26043;BME280;13818;52.156;5.382;2023-10-09T01:53:02;101698.56;;;16.48;100.00
26043;BME280;13818;52.156;5.382;2023-10-09T01:55:32;101700.75;;;16.41;100.00
26043;BME280;13818;52.156;5.382;2023-10-09T01:58:00;101695.28;;;16.42;100.00
26043;BME280;13818;52.156;5.382;2023-10-09T02:00:30;101688.75;;;16.63;100.00
26043;BME280;13818;52.156;5.382;2023-10-09T02:03:00;101679.47;;;16.68;100.00
26043;BME280;13818;52.156;5.382;2023-10-09T02:05:30;101689.53;;;16.65;100.00
26043;BME280;13818;52.156;5.382;2023-10-09T02:07:58;101682.06;;;16.70;100.00
26043;BME280;13818;52.156;5.382;2023-10-09T02:10:29;101679.78;;;16.78;100.00
26043;BME280;13818;52.156;5.382;2023-10-09T02:13:00;101673.34;;;16.81;100.00
26043;BME280;13818;52.156;5.382;2023-10-09T02:15:32;101673.16;;;16.84;100.00
26043;BME280;13818;52.156;5.382;2023-10-09T02:18:17;101672.66;;;16.77;100.00
26043;BME280;13818;52.156;5.382;2023-10-09T02:20:51;101677.97;;;16.79;100.00
26043;BME280;13818;52.156;5.382;2023-10-09T02:23:21;101663.53;;;16.80;100.00
26043;BME280;13818;52.156;5.382;2023-10-09T02:25:55;101663.69;;;16.92;100.00
26043;BME280;13818;52.156;5.382;2023-10-09T02:28:23;101662.75;;;16.78;100.00
26043;BME280;13818;52.156;5.382;2023-10-09T02:30:50;101657.38;;;16.78;100.00
26043;BME280;13818;52.156;5.382;2023-10-09T02:33:17;101662.94;;;16.74;100.00
26043;BME280;13818;52.156;5.382;2023-10-09T02:35:52;101664.75;;;16.74;100.00
26043;BME280;13818;52.156;5.382;2023-10-09T02:38:20;101663.25;;;16.54;100.00
26043;BME280;13818;52.156;5.382;2023-10-09T02:40:49;101659.00;;;16.50;100.00
26043;BME280;13818;52.156;5.382;2023-10-09T02:43:46;101647.97;;;16.54;100.00
26043;BME280;13818;52.156;5.382;2023-10-09T02:46:16;101649.44;;;16.60;100.00
26043;BME280;13818;52.156;5.382;2023-10-09T02:48:44;101650.47;;;16.57;100.00
26043;BME280;13818;52.156;5.382;2023-10-09T02:51:16;101625.31;;;16.58;100.00
26043;BME280;13818;52.156;5.382;2023-10-09T02:53:56;101645.41;;;16.67;100.00
26043;BME280;13818;52.156;5.382;2023-10-09T02:56:23;101638.13;;;16.69;100.00
26043;BME280;13818;52.156;5.382;2023-10-09T02:58:51;101629.28;;;16.67;100.00
26043;BME280;13818;52.156;5.382;2023-10-09T03:01:18;101631.75;;;16.70;100.00
26043;BME280;13818;52.156;5.382;2023-10-09T03:03:44;101626.59;;;16.82;100.00
26043;BME280;13818;52.156;5.382;2023-10-09T03:06:12;101622.34;;;16.63;100.00
26043;BME280;13818;52.156;5.382;2023-10-09T03:08:51;101624.56;;;16.71;100.00
26043;BME280;13818;52.156;5.382;2023-10-09T03:11:19;101624.56;;;16.71;100.00
26043;BME280;13818;52.156;5.382;2023-10-09T03:13:46;101624.00;;;16.66;100.00
26043;BME280;13818;52.156;5.382;2023-10-09T03:16:14;101624.25;;;16.61;100.00
26043;BME280;13818;52.156;5.382;2023-10-09T03:18:44;101622.06;;;16.68;100.00
26043;BME280;13818;52.156;5.382;2023-10-09T03:21:12;101615.81;;;16.67;100.00
26043;BME280;13818;52.156;5.382;2023-10-09T03:23:39;101620.59;;;16.62;100.00
26043;BME280;13818;52.156;5.382;2023-10-09T03:26:06;101618.31;;;16.70;100.00
26043;BME280;13818;52.156;5.382;2023-10-09T03:28:33;101620.25;;;16.68;100.00
26043;BME280;13818;52.156;5.382;2023-10-09T03:31:01;101627.84;;;16.76;100.00
26043;BME280;13818;52.156;5.382;2023-10-09T03:33:29;101620.84;;;16.73;100.00
26043;BME280;13818;52.156;5.382;2023-10-09T03:35:58;101615.03;;;16.65;100.00
26043;BME280;13818;52.156;5.382;2023-10-09T03:38:24;101602.56;;;16.79;100.00
26043;BME280;13818;52.156;5.382;2023-10-09T03:40:54;101616.34;;;16.88;100.00
26043;BME280;13818;52.156;5.382;2023-10-09T03:43:21;101625.75;;;16.81;100.00
26043;BME280;13818;52.156;5.382;2023-10-09T03:45:47;101639.81;;;16.86;100.00
26043;BME280;13818;52.156;5.382;2023-10-09T03:48:18;101656.22;;;16.82;100.00
26043;BME280;13818;52.156;5.382;2023-10-09T03:50:52;101664.28;;;16.82;100.00
26043;BME280;13818;52.156;5.382;2023-10-09T03:53:33;101665.44;;;16.78;100.00
26043;BME280;13818;52.156;5.382;2023-10-09T03:56:01;101666.03;;;16.83;100.00
26043;BME280;13818;52.156;5.382;2023-10-09T03:58:30;101654.22;;;16.85;100.00
26043;BME280;13818;52.156;5.382;2023-10-09T04:00:58;101653.31;;;16.70;100.00
26043;BME280;13818;52.156;5.382;2023-10-09T04:03:25;101652.03;;;16.62;100.00
26043;BME280;13818;52.156;5.382;2023-10-09T04:05:53;101663.06;;;16.57;100.00
26043;BME280;13818;52.156;5.382;2023-10-09T04:08:19;101665.25;;;16.50;100.00
26043;BME280;13818;52.156;5.382;2023-10-09T04:10:45;101658.16;;;16.49;100.00
26043;BME280;13818;52.156;5.382;2023-10-09T04:13:19;101654.84;;;16.44;100.00
26043;BME280;13818;52.156;5.382;2023-10-09T04:15:50;101660.16;;;16.46;100.00
26043;BME280;13818;52.156;5.382;2023-10-09T04:18:18;101647.53;;;16.46;100.00
26043;BME280;13818;52.156;5.382;2023-10-09T04:20:44;101659.94;;;16.49;100.00
26043;BME280;13818;52.156;5.382;2023-10-09T04:23:37;101667.56;;;16.56;100.00
26043;BME280;13818;52.156;5.382;2023-10-09T04:26:24;101649.06;;;16.66;100.00
26043;BME280;13818;52.156;5.382;2023-10-09T04:28:50;101648.53;;;16.75;100.00
26043;BME280;13818;52.156;5.382;2023-10-09T04:31:18;101636.50;;;16.67;100.00
26043;BME280;13818;52.156;5.382;2023-10-09T04:33:47;101636.72;;;16.78;100.00
26043;BME280;13818;52.156;5.382;2023-10-09T04:36:40;101625.16;;;16.76;100.00
26043;BME280;13818;52.156;5.382;2023-10-09T04:39:13;101636.19;;;16.71;100.00
26043;BME280;13818;52.156;5.382;2023-10-09T04:42:01;101631.09;;;16.67;100.00
26043;BME280;13818;52.156;5.382;2023-10-09T04:44:52;101633.81;;;16.81;100.00
26043;BME280;13818;52.156;5.382;2023-10-09T04:47:37;101638.31;;;16.97;100.00
26043;BME280;13818;52.156;5.382;2023-10-09T04:50:04;101630.44;;;16.94;100.00
26043;BME280;13818;52.156;5.382;2023-10-09T04:52:34;101621.06;;;16.85;100.00
26043;BME280;13818;52.156;5.382;2023-10-09T04:55:19;101623.66;;;16.86;100.00
26043;BME280;13818;52.156;5.382;2023-10-09T04:57:50;101612.41;;;16.80;100.00
26043;BME280;13818;52.156;5.382;2023-10-09T05:00:28;101631.81;;;16.85;100.00
26043;BME280;13818;52.156;5.382;2023-10-09T05:03:12;101632.78;;;16.84;100.00
26043;BME280;13818;52.156;5.382;2023-10-09T05:05:50;101626.44;;;16.85;100.00
26043;BME280;13818;52.156;5.382;2023-10-09T05:08:24;101632.41;;;16.90;100.00
26043;BME280;13818;52.156;5.382;2023-10-09T05:10:56;101637.09;;;16.86;100.00
26043;BME280;13818;52.156;5.382;2023-10-09T05:13:41;101645.69;;;16.93;100.00
26043;BME280;13818;52.156;5.382;2023-10-09T05:16:09;101642.47;;;17.02;100.00
26043;BME280;13818;52.156;5.382;2023-10-09T05:18:41;101646.13;;;17.01;100.00
26043;BME280;13818;52.156;5.382;2023-10-09T05:21:10;101661.13;;;17.05;100.00
26043;BME280;13818;52.156;5.382;2023-10-09T05:23:50;101664.41;;;17.11;100.00
26043;BME280;13818;52.156;5.382;2023-10-09T05:26:40;101674.13;;;17.13;100.00
26043;BME280;13818;52.156;5.382;2023-10-09T05:29:17;101670.31;;;17.17;100.00
26043;BME280;13818;52.156;5.382;2023-10-09T05:31:50;101686.16;;;17.22;100.00
26043;BME280;13818;52.156;5.382;2023-10-09T05:34:22;101678.28;;;17.19;100.00
26043;BME280;13818;52.156;5.382;2023-10-09T05:36:48;101679.66;;;17.26;100.00
26043;BME280;13818;52.156;5.382;2023-10-09T05:39:14;101685.78;;;17.28;100.00
26043;BME280;13818;52.156;5.382;2023-10-09T05:41:48;101690.22;;;17.29;100.00
26043;BME280;13818;52.156;5.382;2023-10-09T05:44:25;101694.75;;;17.29;100.00
26043;BME280;13818;52.156;5.382;2023-10-09T05:47:09;101691.97;;;17.30;100.00
26043;BME280;13818;52.156;5.382;2023-10-09T05:49:53;101699.84;;;17.33;100.00
26043;BME280;13818;52.156;5.382;2023-10-09T05:52:44;101689.00;;;17.35;100.00
26043;BME280;13818;52.156;5.382;2023-10-09T05:55:30;101707.56;;;17.39;100.00
26043;BME280;13818;52.156;5.382;2023-10-09T05:58:36;101697.16;;;17.33;100.00
26043;BME280;13818;52.156;5.382;2023-10-09T06:01:39;101690.44;;;17.40;100.00
26043;BME280;13818;52.156;5.382;2023-10-09T06:04:22;101653.88;;;17.51;100.00
26043;BME280;13818;52.156;5.382;2023-10-09T06:06:59;101653.69;;;17.54;100.00
26043;BME280;13818;52.156;5.382;2023-10-09T06:09:36;101643.16;;;17.64;100.00
26043;BME280;13818;52.156;5.382;2023-10-09T06:12:17;101651.34;;;17.62;100.00
26043;BME280;13818;52.156;5.382;2023-10-09T06:15:00;101652.13;;;17.64;100.00
26043;BME280;13818;52.156;5.382;2023-10-09T06:17:44;101663.78;;;17.65;100.00
26043;BME280;13818;52.156;5.382;2023-10-09T06:20:15;101665.03;;;17.59;100.00
26043;BME280;13818;52.156;5.382;2023-10-09T06:23:00;101645.28;;;17.59;100.00
26043;BME280;13818;52.156;5.382;2023-10-09T06:25:41;101659.34;;;17.64;100.00
26043;BME280;13818;52.156;5.382;2023-10-09T06:28:16;101636.53;;;17.69;100.00
26043;BME280;13818;52.156;5.382;2023-10-09T06:30:45;101643.63;;;17.85;100.00
26043;BME280;13818;52.156;5.382;2023-10-09T06:33:12;101645.56;;;17.97;100.00
26043;BME280;13818;52.156;5.382;2023-10-09T06:35:54;101649.22;;;17.82;100.00
26043;BME280;13818;52.156;5.382;2023-10-09T06:38:20;101656.09;;;17.73;100.00
26043;BME280;13818;52.156;5.382;2023-10-09T06:40:59;101660.78;;;17.69;100.00
26043;BME280;13818;52.156;5.382;2023-10-09T06:43:42;101683.22;;;17.70;100.00
26043;BME280;13818;52.156;5.382;2023-10-09T06:46:19;101687.97;;;17.66;100.00
26043;BME280;13818;52.156;5.382;2023-10-09T06:48:59;101695.28;;;17.64;100.00
26043;BME280;13818;52.156;5.382;2023-10-09T06:51:40;101700.47;;;17.53;100.00
26043;BME280;13818;52.156;5.382;2023-10-09T06:54:06;101706.41;;;17.72;100.00
26043;BME280;13818;52.156;5.382;2023-10-09T06:56:43;101702.59;;;17.77;100.00
26043;BME280;13818;52.156;5.382;2023-10-09T06:59:27;101686.88;;;17.83;100.00
26043;BME280;13818;52.156;5.382;2023-10-09T07:02:08;101685.34;;;17.79;100.00
26043;BME280;13818;52.156;5.382;2023-10-09T07:04:49;101684.56;;;17.77;100.00
26043;BME280;13818;52.156;5.382;2023-10-09T07:07:20;101691.88;;;17.89;100.00
26043;BME280;13818;52.156;5.382;2023-10-09T07:09:46;101691.44;;;17.83;100.00
26043;BME280;13818;52.156;5.382;2023-10-09T07:12:26;101683.03;;;17.87;100.00
26043;BME280;13818;52.156;5.382;2023-10-09T07:14:53;101689.19;;;17.89;100.00
26043;BME280;13818;52.156;5.382;2023-10-09T07:17:27;101693.91;;;17.86;100.00
26043;BME280;13818;52.156;5.382;2023-10-09T07:20:09;101686.03;;;17.83;100.00
26043;BME280;13818;52.156;5.382;2023-10-09T07:22:41;101684.19;;;17.83;100.00
26043;BME280;13818;52.156;5.382;2023-10-09T07:25:19;101670.53;;;18.01;100.00
26043;BME280;13818;52.156;5.382;2023-10-09T07:28:06;101659.91;;;18.12;100.00
26043;BME280;13818;52.156;5.382;2023-10-09T07:30:43;101651.13;;;18.09;100.00
26043;BME280;13818;52.156;5.382;2023-10-09T07:33:10;101640.50;;;18.20;100.00
26043;BME280;13818;52.156;5.382;2023-10-09T07:35:43;101625.28;;;18.19;100.00
26043;BME280;13818;52.156;5.382;2023-10-09T07:38:15;101618.81;;;18.21;100.00
26043;BME280;13818;52.156;5.382;2023-10-09T07:40:45;101617.75;;;18.24;100.00
26043;BME280;13818;52.156;5.382;2023-10-09T07:43:22;101644.72;;;18.24;100.00
26043;BME280;13818;52.156;5.382;2023-10-09T07:45:52;101651.91;;;18.38;100.00
26043;BME280;13818;52.156;5.382;2023-10-09T07:48:37;101671.53;;;18.54;100.00
26043;BME280;13818;52.156;5.382;2023-10-09T07:51:14;101675.53;;;18.62;100.00
26043;BME280;13818;52.156;5.382;2023-10-09T07:53:39;101669.53;;;18.71;100.00
26043;BME280;13818;52.156;5.382;2023-10-09T07:56:09;101684.66;;;18.74;100.00
26043;BME280;13818;52.156;5.382;2023-10-09T07:58:39;101679.16;;;18.75;100.00
26043;BME280;13818;52.156;5.382;2023-10-09T08:01:12;101675.34;;;18.65;100.00
26043;BME280;13818;52.156;5.382;2023-10-09T08:03:49;101690.72;;;18.77;100.00
26043;BME280;13818;52.156;5.382;2023-10-09T08:06:23;101690.63;;;18.79;100.00
26043;BME280;13818;52.156;5.382;2023-10-09T08:09:11;101686.72;;;18.83;100.00
26043;BME280;13818;52.156;5.382;2023-10-09T08:11:53;101707.00;;;18.90;100.00
26043;BME280;13818;52.156;5.382;2023-10-09T08:14:37;101706.66;;;18.95;100.00
26043;BME280;13818;52.156;5.382;2023-10-09T08:17:11;101704.56;;;19.13;100.00
26043;BME280;13818;52.156;5.382;2023-10-09T08:19:47;101712.25;;;19.19;100.00
26043;BME280;13818;52.156;5.382;2023-10-09T08:22:21;101708.34;;;19.23;100.00
26043;BME280;13818;52.156;5.382;2023-10-09T08:25:06;101702.63;;;19.28;100.00
26043;BME280;13818;52.156;5.382;2023-10-09T08:27:33;101696.78;;;19.34;100.00
26043;BME280;13818;52.156;5.382;2023-10-09T08:30:19;101699.59;;;19.32;100.00
26043;BME280;13818;52.156;5.382;2023-10-09T08:33:06;101710.84;;;19.39;100.00
26043;BME280;13818;52.156;5.382;2023-10-09T08:35:48;101722.63;;;19.38;100.00
26043;BME280;13818;52.156;5.382;2023-10-09T08:38:17;101744.88;;;19.29;100.00
26043;BME280;13818;52.156;5.382;2023-10-09T08:40:48;101752.25;;;19.27;100.00
26043;BME280;13818;52.156;5.382;2023-10-09T08:43:17;101753.31;;;19.24;100.00
26043;BME280;13818;52.156;5.382;2023-10-09T08:45:46;101754.72;;;19.17;100.00
26043;BME280;13818;52.156;5.382;2023-10-09T08:48:13;101743.50;;;19.36;100.00
26043;BME280;13818;52.156;5.382;2023-10-09T08:50:41;101747.81;;;19.39;100.00
26043;BME280;13818;52.156;5.382;2023-10-09T08:53:12;101763.06;;;19.52;100.00
26043;BME280;13818;52.156;5.382;2023-10-09T08:55:41;101765.03;;;19.63;100.00
26043;BME280;13818;52.156;5.382;2023-10-09T08:58:09;101763.09;;;19.78;100.00
26043;BME280;13818;52.156;5.382;2023-10-09T09:00:44;101760.28;;;19.80;100.00
26043;BME280;13818;52.156;5.382;2023-10-09T09:03:11;101757.47;;;19.81;100.00
26043;BME280;13818;52.156;5.382;2023-10-09T09:05:39;101766.13;;;19.87;100.00
26043;BME280;13818;52.156;5.382;2023-10-09T09:08:22;101761.16;;;20.06;100.00
26043;BME280;13818;52.156;5.382;2023-10-09T09:10:57;101760.19;;;19.94;100.00
26043;BME280;13818;52.156;5.382;2023-10-09T09:13:30;101755.41;;;19.98;100.00
26043;BME280;13818;52.156;5.382;2023-10-09T09:15:59;101760.72;;;19.99;100.00
26043;BME280;13818;52.156;5.382;2023-10-09T09:18:25;101781.28;;;20.15;100.00
26043;BME280;13818;52.156;5.382;2023-10-09T09:20:57;101792.19;;;20.26;100.00
26043;BME280;13818;52.156;5.382;2023-10-09T09:23:25;101785.13;;;20.37;100.00
26043;BME280;13818;52.156;5.382;2023-10-09T09:25:52;101783.94;;;20.41;100.00
26043;BME280;13818;52.156;5.382;2023-10-09T09:28:24;101769.94;;;20.47;100.00
26043;BME280;13818;52.156;5.382;2023-10-09T09:30:52;101787.06;;;20.47;100.00
26043;BME280;13818;52.156;5.382;2023-10-09T09:33:20;101779.22;;;20.56;100.00
26043;BME280;13818;52.156;5.382;2023-10-09T09:36:01;101776.91;;;20.62;100.00
26043;BME280;13818;52.156;5.382;2023-10-09T09:38:31;101776.19;;;20.60;100.00
26043;BME280;13818;52.156;5.382;2023-10-09T09:41:08;101781.78;;;20.70;100.00
26043;BME280;13818;52.156;5.382;2023-10-09T09:43:36;101778.13;;;20.71;100.00
26043;BME280;13818;52.156;5.382;2023-10-09T09:46:06;101771.13;;;20.80;100.00
26043;BME280;13818;52.156;5.382;2023-10-09T09:48:35;101772.59;;;20.73;100.00
26043;BME280;13818;52.156;5.382;2023-10-09T09:51:04;101771.84;;;20.71;100.00
26043;BME280;13818;52.156;5.382;2023-10-09T09:53:32;101771.91;;;20.82;100.00
26043;BME280;13818;52.156;5.382;2023-10-09T09:56:00;101777.19;;;20.84;100.00
26043;BME280;13818;52.156;5.382;2023-10-09T09:58:28;101771.31;;;20.90;100.00
26043;BME280;13818;52.156;5.382;2023-10-09T10:03:43;101776.66;;;21.03;100.00
26043;BME280;13818;52.156;5.382;2023-10-09T10:06:11;101772.00;;;21.05;100.00
26043;BME280;13818;52.156;5.382;2023-10-09T10:08:42;101771.66;;;21.09;100.00
26043;BME280;13818;52.156;5.382;2023-10-09T10:11:41;101772.97;;;21.04;100.00
26043;BME280;13818;52.156;5.382;2023-10-09T10:14:10;101771.81;;;21.19;100.00
26043;BME280;13818;52.156;5.382;2023-10-09T10:17:02;101768.13;;;21.20;100.00
26043;BME280;13818;52.156;5.382;2023-10-09T10:20:03;101769.19;;;21.06;100.00
26043;BME280;13818;52.156;5.382;2023-10-09T10:23:16;101771.59;;;21.22;100.00
26043;BME280;13818;52.156;5.382;2023-10-09T10:25:46;101771.72;;;21.21;100.00
26043;BME280;13818;52.156;5.382;2023-10-09T10:28:16;101786.97;;;21.22;100.00
26043;BME280;13818;52.156;5.382;2023-10-09T10:30:51;101786.47;;;21.17;100.00
26043;BME280;13818;52.156;5.382;2023-10-09T10:33:18;101799.03;;;21.18;100.00
26043;BME280;13818;52.156;5.382;2023-10-09T10:35:48;101796.75;;;21.24;100.00
26043;BME280;13818;52.156;5.382;2023-10-09T10:38:30;101791.22;;;21.37;100.00
26043;BME280;13818;52.156;5.382;2023-10-09T10:41:16;101792.09;;;21.38;100.00
26043;BME280;13818;52.156;5.382;2023-10-09T10:43:43;101796.06;;;21.45;100.00
26043;BME280;13818;52.156;5.382;2023-10-09T10:46:28;101792.75;;;21.53;100.00
26043;BME280;13818;52.156;5.382;2023-10-09T10:49:04;101784.03;;;21.60;100.00
26043;BME280;13818;52.156;5.382;2023-10-09T10:51:40;101792.53;;;21.56;100.00
26043;BME280;13818;52.156;5.382;2023-10-09T10:54:20;101787.97;;;21.56;100.00
26043;BME280;13818;52.156;5.382;2023-10-09T10:57:15;101783.97;;;21.49;100.00
26043;BME280;13818;52.156;5.382;2023-10-09T10:59:45;101784.59;;;21.53;100.00
26043;BME280;13818;52.156;5.382;2023-10-09T11:02:16;101779.72;;;21.58;100.00
26043;BME280;13818;52.156;5.382;2023-10-09T11:04:53;101789.97;;;21.66;100.00
26043;BME280;13818;52.156;5.382;2023-10-09T11:07:39;101784.03;;;21.60;100.00
26043;BME280;13818;52.156;5.382;2023-10-09T11:10:06;101771.09;;;21.64;100.00
26043;BME280;13818;52.156;5.382;2023-10-09T11:12:43;101773.84;;;21.75;100.00
26043;BME280;13818;52.156;5.382;2023-10-09T11:15:30;101777.28;;;21.77;100.00
26043;BME280;13818;52.156;5.382;2023-10-09T11:18:05;101778.91;;;21.80;100.00
26043;BME280;13818;52.156;5.382;2023-10-09T11:20:33;101784.06;;;21.83;100.00
26043;BME280;13818;52.156;5.382;2023-10-09T11:23:01;101788.66;;;21.83;100.00
26043;BME280;13818;52.156;5.382;2023-10-09T11:25:42;101786.66;;;21.85;100.00
26043;BME280;13818;52.156;5.382;2023-10-09T11:28:17;101781.00;;;21.99;100.00
26043;BME280;13818;52.156;5.382;2023-10-09T11:30:55;101794.72;;;21.98;100.00
26043;BME280;13818;52.156;5.382;2023-10-09T11:33:23;101790.59;;;21.81;100.00
26043;BME280;13818;52.156;5.382;2023-10-09T11:35:56;101783.84;;;21.75;100.00
26043;BME280;13818;52.156;5.382;2023-10-09T11:38:26;101782.59;;;21.79;100.00
26043;BME280;13818;52.156;5.382;2023-10-09T11:40:54;101781.84;;;22.00;100.00
26043;BME280;13818;52.156;5.382;2023-10-09T11:43:48;101773.22;;;22.17;100.00
26043;BME280;13818;52.156;5.382;2023-10-09T11:46:16;101772.59;;;22.36;100.00
26043;BME280;13818;52.156;5.382;2023-10-09T11:49:05;101774.97;;;22.41;100.00
26043;BME280;13818;52.156;5.382;2023-10-09T11:51:50;101775.72;;;22.43;100.00
26043;BME280;13818;52.156;5.382;2023-10-09T11:54:50;101788.53;;;22.41;100.00
26043;BME280;13818;52.156;5.382;2023-10-09T11:57:15;101784.69;;;22.32;100.00
26043;BME280;13818;52.156;5.382;2023-10-09T11:59:42;101778.78;;;22.27;100.00
26043;BME280;13818;52.156;5.382;2023-10-09T12:02:10;101783.94;;;22.19;100.00
26043;BME280;13818;52.156;5.382;2023-10-09T12:04:38;101775.31;;;22.25;100.00
26043;BME280;13818;52.156;5.382;2023-10-09T12:07:07;101768.28;;;22.22;100.00
26043;BME280;13818;52.156;5.382;2023-10-09T12:09:35;101764.72;;;22.22;100.00
26043;BME280;13818;52.156;5.382;2023-10-09T12:12:02;101763.47;;;22.15;100.00
26043;BME280;13818;52.156;5.382;2023-10-09T12:14:29;101773.09;;;22.19;100.00
26043;BME280;13818;52.156;5.382;2023-10-09T12:16:59;101769.66;;;22.17;100.00
26043;BME280;13818;52.156;5.382;2023-10-09T12:19:31;101763.13;;;22.08;100.00
26043;BME280;13818;52.156;5.382;2023-10-09T12:21:58;101758.19;;;22.13;100.00
26043;BME280;13818;52.156;5.382;2023-10-09T12:24:26;101751.16;;;22.10;100.00
26043;BME280;13818;52.156;5.382;2023-10-09T12:26:54;101761.25;;;22.08;100.00
26043;BME280;13818;52.156;5.382;2023-10-09T12:29:20;101764.72;;;21.99;100.00
26043;BME280;13818;52.156;5.382;2023-10-09T12:31:47;101759.91;;;21.91;100.00
26043;BME280;13818;52.156;5.382;2023-10-09T12:34:14;101766.44;;;21.89;100.00
26043;BME280;13818;52.156;5.382;2023-10-09T12:36:41;101760.63;;;21.71;100.00
26043;BME280;13818;52.156;5.382;2023-10-09T12:39:11;101760.63;;;21.71;100.00
26043;BME280;13818;52.156;5.382;2023-10-09T12:41:43;101766.19;;;21.81;100.00
26043;BME280;13818;52.156;5.382;2023-10-09T12:44:09;101760.88;;;21.79;100.00
26043;BME280;13818;52.156;5.382;2023-10-09T12:46:40;101762.00;;;21.76;100.00
26043;BME280;13818;52.156;5.382;2023-10-09T12:49:06;101767.06;;;21.81;100.00
26043;BME280;13818;52.156;5.382;2023-10-09T12:51:33;101764.44;;;21.80;100.00
26043;BME280;13818;52.156;5.382;2023-10-09T12:53:59;101767.78;;;21.83;100.00
26043;BME280;13818;52.156;5.382;2023-10-09T12:56:28;101773.47;;;21.80;100.00
26043;BME280;13818;52.156;5.382;2023-10-09T12:59:02;101780.00;;;21.66;100.00
26043;BME280;13818;52.156;5.382;2023-10-09T13:01:30;101781.63;;;21.44;100.00
26043;BME280;13818;52.156;5.382;2023-10-09T13:03:57;101787.03;;;21.44;100.00
26043;BME280;13818;52.156;5.382;2023-10-09T13:06:25;101783.81;;;21.39;100.00
26043;BME280;13818;52.156;5.382;2023-10-09T13:08:51;101772.34;;;21.24;100.00
26043;BME280;13818;52.156;5.382;2023-10-09T13:11:18;101784.38;;;21.20;100.00
26043;BME280;13818;52.156;5.382;2023-10-09T13:13:46;101780.69;;;21.21;100.00
26043;BME280;13818;52.156;5.382;2023-10-09T13:16:16;101780.47;;;21.24;100.00